createdAt,value
2022-12-11T00:01:15.223Z,31.20
2022-12-11T00:03:48.705Z,34.80
2022-12-11T00:06:23.505Z,31.80
2022-12-11T00:08:57.097Z,31.10
2022-12-11T00:11:30.322Z,31.20
2022-12-11T00:14:04.550Z,32.00
2022-12-11T00:16:37.561Z,31.10
2022-12-11T00:19:11.025Z,28.50
2022-12-11T00:21:44.698Z,28.40
2022-12-11T00:24:18.139Z,28.20
2022-12-11T00:26:51.091Z,28.70
2022-12-11T00:29:25.532Z,28.40
2022-12-11T00:31:59.269Z,28.10
2022-12-11T00:34:32.084Z,25.40
2022-12-11T00:37:08.849Z,26.70
2022-12-11T00:39:41.896Z,26.30
2022-12-11T00:42:14.565Z,24.70
2022-12-11T00:44:46.402Z,25.20
2022-12-11T00:47:18.653Z,26.70
2022-12-11T00:49:50.800Z,28.90
2022-12-11T00:52:25.269Z,30.00
2022-12-11T00:54:59.922Z,27.30
2022-12-11T00:57:31.779Z,24.80
2022-12-11T01:00:05.880Z,25.50
2022-12-11T01:02:39.717Z,24.60
2022-12-11T01:05:15.151Z,23.80
2022-12-11T01:07:48.717Z,23.20
2022-12-11T01:10:26.405Z,23.90
2022-12-11T01:13:01.804Z,23.60
2022-12-11T01:15:41.599Z,23.60
2022-12-11T01:18:15.385Z,22.90
2022-12-11T01:20:48.151Z,21.00
2022-12-11T01:23:20.680Z,22.20
2022-12-11T01:25:53.686Z,22.50
2022-12-11T01:28:27.896Z,23.20
2022-12-11T01:31:02.701Z,23.60
2022-12-11T01:33:35.298Z,22.90
2022-12-11T01:36:14.081Z,21.90
2022-12-11T01:38:48.238Z,24.10
2022-12-11T01:41:21.334Z,24.30
2022-12-11T01:44:06.530Z,24.40
2022-12-11T01:46:39.822Z,21.80
2022-12-11T01:49:15.276Z,23.40
2022-12-11T01:51:53.686Z,21.80
2022-12-11T01:54:29.181Z,21.60
2022-12-11T01:57:04.205Z,22.60
2022-12-11T01:59:42.269Z,21.10
2022-12-11T02:02:18.615Z,21.50
2022-12-11T02:04:50.850Z,21.80
2022-12-11T02:07:24.981Z,22.90
2022-12-11T02:09:57.831Z,21.50
2022-12-11T02:12:38.441Z,20.50
2022-12-11T02:15:16.931Z,22.30
2022-12-11T02:17:53.460Z,21.20
2022-12-11T02:20:31.007Z,22.40
2022-12-11T02:23:29.619Z,23.10
2022-12-11T02:26:13.678Z,23.20
2022-12-11T02:28:49.102Z,23.80
2022-12-11T02:31:31.084Z,23.70
2022-12-11T02:34:07.070Z,22.60
2022-12-11T02:36:45.612Z,22.80
2022-12-11T02:39:22.340Z,22.80
2022-12-11T02:41:54.906Z,21.60
2022-12-11T02:44:30.777Z,22.90
2022-12-11T02:47:03.939Z,23.20
2022-12-11T02:49:36.803Z,24.90
2022-12-11T02:52:16.529Z,24.80
2022-12-11T02:54:51.324Z,25.80
2022-12-11T02:57:27.192Z,26.50
2022-12-11T03:00:00.072Z,26.70
2022-12-11T03:02:35.384Z,26.20
2022-12-11T03:05:10.957Z,23.70
2022-12-11T03:07:46.012Z,24.60
2022-12-11T03:10:23.498Z,25.90
2022-12-11T03:12:57.853Z,25.30
2022-12-11T03:15:35.538Z,26.30
2022-12-11T03:18:15.391Z,26.60
2022-12-11T03:20:50.237Z,28.20
2022-12-11T03:23:26.928Z,27.20
2022-12-11T03:26:00.907Z,26.00
2022-12-11T03:28:38.474Z,26.50
2022-12-11T03:31:13.805Z,26.70
2022-12-11T03:33:50.351Z,27.20
2022-12-11T03:36:27.135Z,26.90
2022-12-11T03:39:05.582Z,28.00
2022-12-11T03:41:41.378Z,29.60
2022-12-11T03:44:15.067Z,27.80
2022-12-11T03:46:48.220Z,28.20
2022-12-11T03:49:23.509Z,28.80
2022-12-11T03:51:59.148Z,29.00
2022-12-11T03:54:34.387Z,28.50
2022-12-11T03:57:12.784Z,29.20
2022-12-11T03:59:45.366Z,27.30
2022-12-11T04:02:18.007Z,27.90
2022-12-11T04:04:51.621Z,29.00
2022-12-11T04:07:25.039Z,29.30
2022-12-11T04:09:58.441Z,30.50
2022-12-11T04:12:30.742Z,29.10
2022-12-11T04:15:04.303Z,31.40
2022-12-11T04:17:58.445Z,29.20
2022-12-11T04:20:51.636Z,28.80
2022-12-11T04:23:42.162Z,29.60
2022-12-11T04:26:16.731Z,29.90
2022-12-11T04:28:50.125Z,29.70
2022-12-11T04:31:24.897Z,29.50
2022-12-11T04:33:58.176Z,31.20
2022-12-11T04:36:30.420Z,30.40
2022-12-11T04:39:04.571Z,28.80
2022-12-11T04:41:39.046Z,29.10
2022-12-11T04:44:11.131Z,29.90
2022-12-11T04:46:44.698Z,30.30
2022-12-11T04:49:17.527Z,30.80
2022-12-11T04:51:50.915Z,31.50
2022-12-11T04:54:26.007Z,29.20
2022-12-11T04:56:58.750Z,28.90
2022-12-11T04:59:32.321Z,29.40
2022-12-11T05:02:06.568Z,28.70
2022-12-11T05:04:40.584Z,29.30
2022-12-11T05:07:15.299Z,28.70
2022-12-11T05:09:50.674Z,29.40
2022-12-11T05:12:23.927Z,29.60
2022-12-11T05:14:56.684Z,30.00
2022-12-11T05:17:28.875Z,30.50
2022-12-11T05:20:01.578Z,30.40
2022-12-11T05:22:35.005Z,32.30
2022-12-11T05:25:09.520Z,32.70
2022-12-11T05:27:42.652Z,31.40
2022-12-11T05:30:16.285Z,31.20
2022-12-11T05:32:48.546Z,30.20
2022-12-11T05:35:24.064Z,30.10
2022-12-11T05:37:57.000Z,29.70
2022-12-11T05:40:30.073Z,30.10
2022-12-11T05:43:03.644Z,31.30
2022-12-11T05:45:36.963Z,30.40
2022-12-11T05:48:09.877Z,29.70
2022-12-11T05:50:43.098Z,25.40
2022-12-11T05:53:15.593Z,25.70
2022-12-11T05:55:48.975Z,26.00
2022-12-11T05:58:23.302Z,24.20
2022-12-11T06:00:55.382Z,24.40
2022-12-11T06:03:27.383Z,24.50
2022-12-11T06:06:05.383Z,23.00
2022-12-11T06:08:38.632Z,23.10
2022-12-11T06:11:11.961Z,22.50
2022-12-11T06:13:47.086Z,22.90
2022-12-11T06:16:22.850Z,22.90
2022-12-11T06:18:58.194Z,23.50
2022-12-11T06:21:34.248Z,23.30
2022-12-11T06:24:11.231Z,22.20
2022-12-11T06:26:45.635Z,21.20
2022-12-11T06:29:18.875Z,20.80
2022-12-11T06:31:51.790Z,20.40
2022-12-11T06:34:25.373Z,20.50
2022-12-11T06:36:57.939Z,21.80
2022-12-11T06:39:34.345Z,21.10
2022-12-11T06:42:07.693Z,21.10
2022-12-11T06:44:39.532Z,22.70
2022-12-11T06:47:13.856Z,24.70
2022-12-11T06:49:49.311Z,25.00
2022-12-11T06:52:22.767Z,23.80
2022-12-11T06:54:54.890Z,24.70
2022-12-11T06:57:27.627Z,24.10
2022-12-11T06:59:59.860Z,25.60
2022-12-11T07:02:33.146Z,27.10
2022-12-11T07:05:05.928Z,27.50
2022-12-11T07:07:38.743Z,27.80
2022-12-11T07:10:14.557Z,25.60
2022-12-11T07:12:48.199Z,25.20
2022-12-11T07:15:21.041Z,26.00
2022-12-11T07:17:54.326Z,25.50
2022-12-11T07:20:27.605Z,26.00
2022-12-11T07:23:00.583Z,26.20
2022-12-11T07:25:33.642Z,28.00
2022-12-11T07:28:09.127Z,29.50
2022-12-11T07:30:43.275Z,28.60
2022-12-11T07:33:18.958Z,28.30
2022-12-11T07:35:51.743Z,30.80
2022-12-11T07:38:25.066Z,26.50
2022-12-11T07:41:03.785Z,26.50
2022-12-11T07:43:36.372Z,24.30
2022-12-11T07:46:12.579Z,26.00
2022-12-11T07:48:46.734Z,25.70
2022-12-11T07:51:20.518Z,26.60
2022-12-11T07:53:55.971Z,28.80
2022-12-11T07:56:29.135Z,27.40
2022-12-11T07:59:03.850Z,32.70
2022-12-11T08:01:37.591Z,35.30
2022-12-11T08:04:12.197Z,32.00
2022-12-11T08:06:46.038Z,26.60
2022-12-11T08:09:24.367Z,26.50
2022-12-11T08:11:59.752Z,26.60
2022-12-11T08:14:33.940Z,23.50
2022-12-11T08:17:07.508Z,25.70
2022-12-11T08:19:40.297Z,26.10
2022-12-11T08:22:14.520Z,25.80
2022-12-11T08:24:47.487Z,25.10
2022-12-11T08:27:21.926Z,23.20
2022-12-11T08:29:54.063Z,28.50
2022-12-11T08:32:27.593Z,29.10
2022-12-11T08:35:04.353Z,32.90
2022-12-11T08:37:36.790Z,25.00
2022-12-11T08:40:12.575Z,30.00
2022-12-11T08:42:45.161Z,35.00
2022-12-11T08:45:19.228Z,32.40
2022-12-11T08:47:54.498Z,47.10
2022-12-11T08:50:27.078Z,36.50
2022-12-11T08:53:00.678Z,26.00
2022-12-11T08:55:37.480Z,25.70
2022-12-11T08:58:09.490Z,29.00
2022-12-11T09:00:44.579Z,53.80
2022-12-11T09:03:18.213Z,43.70
2022-12-11T09:05:50.447Z,44.20
2022-12-11T09:08:23.569Z,42.70
2022-12-11T09:10:56.628Z,35.00
2022-12-11T09:13:30.440Z,34.90
2022-12-11T09:16:04.988Z,54.90
2022-12-11T09:18:38.479Z,40.90
2022-12-11T09:21:14.116Z,39.50
2022-12-11T09:23:46.900Z,57.90
2022-12-11T09:26:20.424Z,48.30
2022-12-11T09:28:54.921Z,32.30
2022-12-11T09:31:28.753Z,23.20
2022-12-11T09:34:02.068Z,27.70
2022-12-11T09:36:37.151Z,23.40
2022-12-11T09:39:12.437Z,21.90
2022-12-11T09:41:51.322Z,26.80
2022-12-11T09:44:35.715Z,27.80
2022-12-11T09:47:21.234Z,26.50
2022-12-11T09:49:58.546Z,27.00
2022-12-11T09:52:36.556Z,28.90
2022-12-11T09:55:16.497Z,32.00
2022-12-11T09:57:55.664Z,33.30
2022-12-11T10:00:33.160Z,42.60
2022-12-11T10:03:29.384Z,42.70
2022-12-11T10:06:08.292Z,25.50
2022-12-11T10:08:46.774Z,30.40
2022-12-11T10:11:32.271Z,35.50
2022-12-11T10:14:10.270Z,30.80
2022-12-11T10:16:47.310Z,29.30
2022-12-11T10:19:23.211Z,27.20
2022-12-11T10:21:56.492Z,34.70
2022-12-11T10:25:09.471Z,26.60
2022-12-11T10:27:31.559Z,24.00
2022-12-11T10:30:18.486Z,26.20
2022-12-11T10:33:05.170Z,22.70
2022-12-11T10:35:40.550Z,23.50
2022-12-11T10:38:23.665Z,22.30
2022-12-11T10:40:59.613Z,20.80
2022-12-11T10:43:41.697Z,19.90
2022-12-11T10:46:19.943Z,27.90
2022-12-11T10:48:55.486Z,21.10
2022-12-11T10:51:35.158Z,25.80
2022-12-11T10:54:18.935Z,28.50
2022-12-11T10:56:54.965Z,27.20
2022-12-11T10:59:30.032Z,23.80
2022-12-11T11:02:04.032Z,26.60
2022-12-11T11:04:38.556Z,30.60
2022-12-11T11:07:20.776Z,30.90
2022-12-11T11:09:56.447Z,28.30
2022-12-11T11:12:31.879Z,30.00
2022-12-11T11:15:07.959Z,29.10
2022-12-11T11:17:55.085Z,30.30
2022-12-11T11:20:30.501Z,30.30
2022-12-11T11:23:10.539Z,26.50
2022-12-11T11:25:54.273Z,26.30
2022-12-11T11:28:29.476Z,31.50
2022-12-11T11:31:05.930Z,41.00
2022-12-11T11:33:46.024Z,37.20
2022-12-11T11:36:24.233Z,30.10
2022-12-11T11:39:08.890Z,37.40
2022-12-11T11:41:48.237Z,34.10
2022-12-11T11:44:25.229Z,32.80
2022-12-11T11:47:05.453Z,27.80
2022-12-11T11:49:52.302Z,45.20
2022-12-11T11:52:31.071Z,29.50
2022-12-11T11:55:10.276Z,33.90
2022-12-11T11:57:51.061Z,32.60
2022-12-11T12:00:34.378Z,35.40
2022-12-11T12:03:14.049Z,37.80
2022-12-11T12:05:51.740Z,42.30
2022-12-11T12:08:31.387Z,35.50
2022-12-11T12:11:11.183Z,38.20
2022-12-11T12:13:50.478Z,36.40
2022-12-11T12:16:55.897Z,35.80
2022-12-11T12:19:45.353Z,30.90
2022-12-11T12:22:28.653Z,40.10
2022-12-11T12:25:13.635Z,34.00
2022-12-11T12:27:53.463Z,31.40
2022-12-11T12:30:26.686Z,39.30
2022-12-11T12:33:18.431Z,30.80
2022-12-11T12:36:02.081Z,29.10
2022-12-11T12:38:50.117Z,32.00
2022-12-11T12:41:29.634Z,32.00
2022-12-11T12:44:11.861Z,30.90
2022-12-11T12:46:54.525Z,31.40
2022-12-11T12:49:39.257Z,30.00
2022-12-11T12:52:17.361Z,31.60
2022-12-11T12:55:06.769Z,30.30
2022-12-11T12:57:40.670Z,28.90
2022-12-11T13:00:26.861Z,31.50
2022-12-11T13:03:00.618Z,28.30
2022-12-11T13:05:37.273Z,35.60
2022-12-11T13:08:10.526Z,38.30
2022-12-11T13:10:45.283Z,38.10
2022-12-11T13:13:35.349Z,39.50
2022-12-11T13:16:27.293Z,35.70
2022-12-11T13:19:01.354Z,36.50
2022-12-11T13:21:38.398Z,35.50
2022-12-11T13:24:27.912Z,38.00
2022-12-11T13:27:12.236Z,41.50
2022-12-11T13:29:47.400Z,35.80
2022-12-11T13:32:29.087Z,36.90
2022-12-11T13:35:06.260Z,43.90
2022-12-11T13:37:42.752Z,47.00
2022-12-11T13:40:20.961Z,41.30
2022-12-11T13:42:55.942Z,44.90
2022-12-11T13:45:31.035Z,48.00
2022-12-11T13:48:05.152Z,43.90
2022-12-11T13:50:38.020Z,38.00
2022-12-11T13:53:19.248Z,32.90
2022-12-11T13:56:00.580Z,36.90
2022-12-11T13:58:35.417Z,34.60
2022-12-11T14:01:11.491Z,39.60
2022-12-11T14:03:49.532Z,34.30
2022-12-11T14:06:22.616Z,35.20
2022-12-11T14:08:58.144Z,35.50
2022-12-11T14:11:32.623Z,40.10
2022-12-11T14:14:08.824Z,41.10
2022-12-11T14:16:41.565Z,40.10
2022-12-11T14:19:19.621Z,39.30
2022-12-11T14:22:02.552Z,41.10
2022-12-11T14:24:35.570Z,46.10
2022-12-11T14:27:20.210Z,49.90
2022-12-11T14:29:53.697Z,44.90
2022-12-11T14:32:32.104Z,42.20
2022-12-11T14:35:06.245Z,36.20
2022-12-11T14:37:40.233Z,33.60
2022-12-11T14:40:21.779Z,34.20
2022-12-11T14:43:00.336Z,37.40
2022-12-11T14:45:37.203Z,40.40
2022-12-11T14:48:12.163Z,42.80
2022-12-11T14:50:50.451Z,45.00
2022-12-11T14:53:25.533Z,49.80
2022-12-11T14:56:03.840Z,51.60
2022-12-11T14:58:40.953Z,59.70
2022-12-11T15:01:26.791Z,56.20
2022-12-11T15:04:18.484Z,53.90
2022-12-11T15:06:52.443Z,50.60
2022-12-11T15:09:30.005Z,49.10
2022-12-11T15:12:11.765Z,44.20
2022-12-11T15:14:49.589Z,47.70
2022-12-11T15:17:23.189Z,44.70
2022-12-11T15:19:57.392Z,46.50
2022-12-11T15:22:35.423Z,42.80
2022-12-11T15:25:18.884Z,45.10
2022-12-11T15:27:54.137Z,44.80
2022-12-11T15:30:33.764Z,48.30
2022-12-11T15:33:24.379Z,40.40
2022-12-11T15:35:59.377Z,43.80
2022-12-11T15:38:43.796Z,40.00
2022-12-11T15:41:21.516Z,38.70
2022-12-11T15:43:58.941Z,39.00
2022-12-11T15:46:37.778Z,39.90
2022-12-11T15:49:15.199Z,39.10
2022-12-11T15:51:48.263Z,42.50
2022-12-11T15:54:21.740Z,40.30
2022-12-11T15:56:56.171Z,38.60
2022-12-11T15:59:28.968Z,41.90
2022-12-11T16:02:02.732Z,41.50
2022-12-11T16:04:35.933Z,41.20
2022-12-11T16:07:10.611Z,45.10
2022-12-11T16:09:45.065Z,42.70
2022-12-11T16:12:19.149Z,42.60
2022-12-11T16:14:52.988Z,43.10
2022-12-11T16:17:27.113Z,44.40
2022-12-11T16:20:00.186Z,46.60
2022-12-11T16:22:33.263Z,50.20
2022-12-11T16:25:06.946Z,47.90
2022-12-11T16:27:40.757Z,57.40
2022-12-11T16:30:16.692Z,51.00
2022-12-11T16:32:48.672Z,55.80
2022-12-11T16:35:23.921Z,60.50
2022-12-11T16:37:59.530Z,56.60
2022-12-11T16:40:32.267Z,59.90
2022-12-11T16:43:08.927Z,61.90
2022-12-11T16:45:43.131Z,61.00
2022-12-11T16:48:17.503Z,59.50
2022-12-11T16:50:57.697Z,69.80
2022-12-11T16:53:55.476Z,52.20
2022-12-11T16:56:34.965Z,85.60
2022-12-11T16:59:43.270Z,93.00
2022-12-11T17:02:36.920Z,78.80
2022-12-11T17:05:10.837Z,65.30
2022-12-11T17:07:45.322Z,44.60
2022-12-11T17:10:19.566Z,44.20
2022-12-11T17:13:18.080Z,45.10
2022-12-11T17:16:07.875Z,45.70
2022-12-11T17:18:41.661Z,43.50
2022-12-11T17:21:16.246Z,40.40
2022-12-11T17:23:51.878Z,42.80
2022-12-11T17:26:25.688Z,42.20
2022-12-11T17:28:59.187Z,48.60
2022-12-11T17:31:33.052Z,41.60
2022-12-11T17:34:06.841Z,39.60
2022-12-11T17:36:40.472Z,43.90
2022-12-11T17:39:12.417Z,50.10
2022-12-11T17:41:46.797Z,52.80
2022-12-11T17:44:19.157Z,50.50
2022-12-11T17:46:53.800Z,47.60
2022-12-11T17:49:27.345Z,50.50
2022-12-11T17:52:04.021Z,45.80
2022-12-11T17:54:36.614Z,58.20
2022-12-11T17:57:10.388Z,48.50
2022-12-11T17:59:44.324Z,50.60
2022-12-11T18:02:17.746Z,48.20
2022-12-11T18:04:52.237Z,50.30
2022-12-11T18:07:26.691Z,49.80
2022-12-11T18:10:00.331Z,50.20
2022-12-11T18:12:37.286Z,54.90
2022-12-11T18:15:12.180Z,50.50
2022-12-11T18:17:47.889Z,49.40
2022-12-11T18:20:21.117Z,51.80
2022-12-11T18:22:53.366Z,51.30
2022-12-11T18:25:28.115Z,49.30
2022-12-11T18:28:01.471Z,49.00
2022-12-11T18:30:36.801Z,51.00
2022-12-11T18:33:11.206Z,50.70
2022-12-11T18:35:44.995Z,43.50
2022-12-11T18:38:17.822Z,49.60
2022-12-11T18:40:52.752Z,42.90
2022-12-11T18:43:25.554Z,49.00
2022-12-11T18:46:01.814Z,43.80
2022-12-11T18:48:34.556Z,45.80
2022-12-11T18:51:11.466Z,51.60
2022-12-11T18:53:44.674Z,45.20
2022-12-11T18:56:19.474Z,46.20
2022-12-11T18:58:52.606Z,42.80
2022-12-11T19:01:27.536Z,47.80
2022-12-11T19:04:10.435Z,45.40
2022-12-11T19:06:45.282Z,46.70
2022-12-11T19:09:18.121Z,40.30
2022-12-11T19:11:50.999Z,43.80
2022-12-11T19:14:27.690Z,46.60
2022-12-11T19:17:00.559Z,49.80
2022-12-11T19:19:34.570Z,42.10
2022-12-11T19:22:08.041Z,41.40
2022-12-11T19:24:41.078Z,40.10
2022-12-11T19:27:14.675Z,37.90
2022-12-11T19:29:48.155Z,40.70
2022-12-11T19:32:21.407Z,31.40
2022-12-11T19:34:59.698Z,37.80
2022-12-11T19:37:33.934Z,34.80
2022-12-11T19:40:10.015Z,34.00
2022-12-11T19:42:43.754Z,35.10
2022-12-11T19:45:16.240Z,36.10
2022-12-11T19:47:48.911Z,34.60
2022-12-11T19:50:22.326Z,34.70
2022-12-11T19:52:54.875Z,34.90
2022-12-11T19:55:27.388Z,35.10
2022-12-11T19:57:59.834Z,36.90
2022-12-11T20:00:32.977Z,31.10
2022-12-11T20:03:06.447Z,30.90
2022-12-11T20:05:41.543Z,33.90
2022-12-11T20:11:17.340Z,31.90
2022-12-11T20:13:57.341Z,33.20
2022-12-11T20:17:02.050Z,33.90
2022-12-11T20:19:27.756Z,36.10
2022-12-11T20:22:02.555Z,39.30
2022-12-11T20:24:34.926Z,43.00
2022-12-11T20:27:07.707Z,42.10
2022-12-11T20:29:40.523Z,42.20
2022-12-11T20:32:14.286Z,46.00
2022-12-11T20:34:48.663Z,47.70
2022-12-11T20:37:21.601Z,40.50
2022-12-11T20:39:55.461Z,39.10
2022-12-11T20:42:30.238Z,40.20
2022-12-11T20:45:02.062Z,44.40
2022-12-11T20:47:37.339Z,46.00
2022-12-11T20:50:11.514Z,43.90
2022-12-11T20:52:46.620Z,42.10
2022-12-11T20:55:19.269Z,47.00
2022-12-11T20:57:52.569Z,41.70
2022-12-11T21:00:26.795Z,42.40
2022-12-11T21:02:58.739Z,41.60
2022-12-11T21:05:36.193Z,44.80
2022-12-11T21:08:10.245Z,44.30
2022-12-11T21:10:46.438Z,43.40
2022-12-11T21:13:20.526Z,37.90
2022-12-11T21:15:56.727Z,38.20
2022-12-11T21:18:29.470Z,39.60
2022-12-11T21:21:03.071Z,40.40
2022-12-11T21:23:36.903Z,39.40
2022-12-11T21:26:09.936Z,36.40
2022-12-11T21:28:42.823Z,37.20
2022-12-11T21:31:18.047Z,35.70
2022-12-11T21:33:51.962Z,36.40
2022-12-11T21:36:26.109Z,36.00
2022-12-11T21:39:00.964Z,36.20
2022-12-11T21:41:34.352Z,36.80
2022-12-11T21:47:04.946Z,36.40
2022-12-11T21:49:39.848Z,35.30
2022-12-11T21:52:14.226Z,33.70
2022-12-11T21:54:47.831Z,33.50
2022-12-11T21:57:26.484Z,34.90
2022-12-11T22:00:05.756Z,33.30
2022-12-11T22:02:41.069Z,35.50
2022-12-11T22:05:17.216Z,36.60
2022-12-11T22:07:50.689Z,34.10
2022-12-11T22:10:24.011Z,33.40
2022-12-11T22:12:59.644Z,37.10
2022-12-11T22:15:34.705Z,34.30
2022-12-11T22:18:07.635Z,35.00
2022-12-11T22:20:39.688Z,36.30
2022-12-11T22:23:11.777Z,35.10
2022-12-11T22:25:45.537Z,36.60
2022-12-11T22:28:21.037Z,32.80
2022-12-11T22:30:55.738Z,35.20
2022-12-11T22:33:28.527Z,35.60
2022-12-11T22:36:01.105Z,36.20
2022-12-11T22:38:34.860Z,37.20
2022-12-11T22:41:16.253Z,38.20
2022-12-11T22:43:52.219Z,36.20
2022-12-11T22:46:26.948Z,32.70
2022-12-11T22:49:01.365Z,35.20
2022-12-11T22:51:35.784Z,33.10
2022-12-11T22:54:09.099Z,35.90
2022-12-11T22:56:44.140Z,34.50
2022-12-11T22:59:16.653Z,34.00
2022-12-11T23:01:48.782Z,34.30
2022-12-11T23:04:22.358Z,35.70
2022-12-11T23:06:57.114Z,32.80
2022-12-11T23:09:30.712Z,34.00
2022-12-11T23:12:05.801Z,32.70
2022-12-11T23:14:39.322Z,34.30
2022-12-11T23:17:12.034Z,35.40
2022-12-11T23:19:46.167Z,33.30
2022-12-11T23:22:18.823Z,32.70
2022-12-11T23:24:51.960Z,33.00
2022-12-11T23:27:25.209Z,31.80
2022-12-11T23:29:58.981Z,32.10
2022-12-11T23:32:30.802Z,31.60
2022-12-11T23:35:05.015Z,32.90
2022-12-11T23:37:40.583Z,33.20
2022-12-11T23:40:15.349Z,33.20
2022-12-11T23:42:47.140Z,37.90
2022-12-11T23:45:21.164Z,33.20
2022-12-11T23:47:54.335Z,32.70
2022-12-11T23:50:27.901Z,33.70
2022-12-11T23:53:02.346Z,32.20
2022-12-11T23:55:36.017Z,34.00
2022-12-11T23:58:07.933Z,31.80
